createdAt,value
2018-07-04T00:01:08.419Z,6.30
2018-07-04T00:03:48.107Z,6.93
2018-07-04T00:06:27.768Z,6.40
2018-07-04T00:09:07.395Z,5.70
2018-07-04T00:11:47.232Z,6.23
2018-07-04T00:14:27.025Z,6.20
2018-07-04T00:17:06.613Z,6.63
2018-07-04T00:19:46.399Z,6.40
2018-07-04T00:22:26.038Z,6.77
2018-07-04T00:25:05.824Z,6.70
2018-07-04T00:27:46.500Z,6.67
2018-07-04T00:30:26.324Z,6.33
2018-07-04T00:33:06.053Z,6.60
2018-07-04T00:35:45.856Z,6.80
2018-07-04T00:38:25.447Z,6.60
2018-07-04T00:41:05.305Z,7.10
2018-07-04T00:43:45.066Z,7.03
2018-07-04T00:46:24.751Z,6.90
2018-07-04T00:49:04.307Z,7.10
2018-07-04T00:51:44.043Z,6.73
2018-07-04T00:54:23.708Z,6.90
2018-07-04T00:57:03.361Z,6.60
2018-07-04T00:59:43.189Z,6.55
2018-07-04T01:02:23.055Z,6.57
2018-07-04T01:05:02.820Z,7.13
2018-07-04T01:07:42.593Z,6.45
2018-07-04T01:10:22.409Z,6.80
2018-07-04T01:13:02.115Z,6.70
2018-07-04T01:15:42.028Z,6.67
2018-07-04T01:18:21.746Z,6.07
2018-07-04T01:21:06.934Z,6.20
2018-07-04T01:23:46.545Z,7.28
2018-07-04T01:26:26.273Z,6.00
2018-07-04T01:29:06.126Z,6.60
2018-07-04T01:31:45.916Z,5.60
2018-07-04T01:34:25.704Z,6.00
2018-07-04T01:37:05.281Z,6.40
2018-07-04T01:39:45.314Z,6.10
2018-07-04T01:42:25.115Z,6.00
2018-07-04T01:45:04.864Z,5.80
2018-07-04T01:47:44.707Z,6.10
2018-07-04T01:50:24.366Z,5.80
2018-07-04T01:53:04.215Z,6.17
2018-07-04T01:55:43.935Z,5.93
2018-07-04T01:58:23.744Z,5.70
2018-07-04T02:01:03.475Z,5.80
2018-07-04T02:03:43.240Z,5.80
2018-07-04T02:06:23.007Z,6.03
2018-07-04T02:09:02.612Z,5.83
2018-07-04T02:11:42.372Z,6.43
2018-07-04T02:14:22.184Z,6.07
2018-07-04T02:17:02.139Z,6.43
2018-07-04T02:19:41.954Z,6.43
2018-07-04T02:22:21.452Z,5.92
2018-07-04T02:25:01.316Z,6.33
2018-07-04T02:27:41.117Z,6.50
2018-07-04T02:30:20.794Z,7.13
2018-07-04T02:33:01.148Z,5.90
2018-07-04T02:35:40.720Z,6.53
2018-07-04T02:38:20.479Z,6.45
2018-07-04T02:41:00.074Z,5.93
2018-07-04T02:43:39.730Z,5.90
2018-07-04T02:46:24.788Z,6.17
2018-07-04T02:49:04.223Z,6.40
2018-07-04T02:51:44.020Z,6.27
2018-07-04T02:54:23.599Z,6.33
2018-07-04T02:57:03.363Z,5.80
2018-07-04T02:59:42.906Z,6.33
2018-07-04T03:02:22.771Z,5.90
2018-07-04T03:05:02.478Z,5.83
2018-07-04T03:07:42.332Z,6.20
2018-07-04T03:10:22.165Z,5.87
2018-07-04T03:13:01.733Z,5.80
2018-07-04T03:15:41.501Z,6.17
2018-07-04T03:18:21.090Z,5.80
2018-07-04T03:21:01.002Z,5.67
2018-07-04T03:23:40.669Z,6.10
2018-07-04T03:26:14.455Z,6.67
2018-07-04T03:28:54.289Z,6.50
2018-07-04T03:31:34.120Z,6.30
2018-07-04T03:34:13.950Z,7.40
2018-07-04T03:36:53.846Z,6.67
2018-07-04T03:39:33.499Z,6.10
2018-07-04T03:42:13.249Z,6.23
2018-07-04T03:44:53.014Z,6.58
2018-07-04T03:47:26.504Z,6.60
2018-07-04T03:50:06.193Z,6.57
2018-07-04T03:52:46.737Z,5.97
2018-07-04T03:55:26.511Z,6.67
2018-07-04T03:58:06.205Z,6.40
2018-07-04T04:00:45.981Z,6.93
2018-07-04T04:03:25.842Z,6.50
2018-07-04T04:06:05.458Z,6.43
2018-07-04T04:08:45.122Z,6.60
2018-07-04T04:11:24.971Z,7.00
2018-07-04T04:14:04.700Z,6.20
2018-07-04T04:16:44.625Z,6.73
2018-07-04T04:19:28.761Z,7.23
2018-07-04T04:22:08.639Z,7.47
2018-07-04T04:24:48.517Z,7.27
2018-07-04T04:27:28.098Z,6.43
2018-07-04T04:30:07.637Z,6.47
2018-07-04T04:32:47.536Z,6.67
2018-07-04T04:35:27.337Z,6.93
2018-07-04T04:38:07.133Z,7.13
2018-07-04T04:40:47.014Z,6.73
2018-07-04T04:43:26.815Z,6.40
2018-07-04T04:46:06.657Z,7.27
2018-07-04T04:48:46.412Z,7.00
2018-07-04T04:51:26.022Z,6.77
2018-07-04T04:53:59.809Z,6.83
2018-07-04T04:56:39.426Z,7.60
2018-07-04T04:59:19.019Z,7.40
2018-07-04T05:01:58.839Z,8.10
2018-07-04T05:04:38.532Z,7.90
2018-07-04T05:07:18.351Z,8.70
2018-07-04T05:09:58.134Z,8.70
2018-07-04T05:12:37.932Z,7.70
2018-07-04T05:15:17.512Z,8.40
2018-07-04T05:17:57.390Z,8.73
2018-07-04T05:20:37.016Z,8.33
2018-07-04T05:23:16.614Z,8.10
2018-07-04T05:25:56.276Z,8.27
2018-07-04T05:28:35.979Z,8.10
2018-07-04T05:31:15.970Z,7.30
2018-07-04T05:33:55.510Z,7.67
2018-07-04T05:36:35.261Z,7.90
2018-07-04T05:39:15.003Z,8.10
2018-07-04T05:41:48.636Z,7.60
2018-07-04T05:44:28.503Z,7.80
2018-07-04T05:47:08.344Z,8.10
2018-07-04T05:49:48.334Z,7.67
2018-07-04T05:52:27.978Z,7.87
2018-07-04T05:55:07.649Z,7.00
2018-07-04T05:57:47.176Z,7.00
2018-07-04T06:00:27.083Z,7.03
2018-07-04T06:03:06.547Z,6.53
2018-07-04T06:05:46.739Z,6.60
2018-07-04T06:08:26.698Z,7.53
2018-07-04T06:11:06.450Z,6.53
2018-07-04T06:13:46.436Z,6.70
2018-07-04T06:16:26.220Z,6.30
2018-07-04T06:18:59.977Z,6.50
2018-07-04T06:21:39.823Z,7.00
2018-07-04T06:24:19.572Z,6.47
2018-07-04T06:26:59.366Z,6.67
2018-07-04T06:29:39.182Z,6.47
2018-07-04T06:32:19.077Z,6.93
2018-07-04T06:34:58.708Z,6.37
2018-07-04T06:37:37.494Z,9.33
2018-07-04T06:40:05.203Z,7.17
2018-07-04T06:42:32.724Z,6.50
2018-07-04T06:45:00.140Z,6.90
2018-07-04T06:47:27.475Z,7.83
2018-07-04T06:49:55.392Z,6.60
2018-07-04T06:52:22.662Z,7.27
2018-07-04T06:54:50.657Z,7.27
2018-07-04T06:57:19.030Z,7.00
2018-07-04T06:59:47.217Z,8.20
2018-07-04T07:02:15.920Z,7.77
2018-07-04T07:04:57.113Z,6.93
2018-07-04T07:07:36.790Z,7.27
2018-07-04T07:10:16.826Z,6.83
2018-07-04T07:12:56.587Z,6.70
2018-07-04T07:15:36.409Z,6.57
2018-07-04T07:18:16.009Z,7.90
2018-07-04T07:20:55.963Z,7.47
2018-07-04T07:23:35.503Z,6.40
2018-07-04T07:26:15.229Z,7.10
2018-07-04T07:28:55.080Z,6.07
2018-07-04T07:31:34.757Z,7.00
2018-07-04T07:34:14.655Z,7.00
2018-07-04T07:36:54.404Z,7.37
2018-07-04T07:39:34.188Z,6.57
2018-07-04T07:42:13.985Z,7.07
2018-07-04T07:44:53.760Z,7.35
2018-07-04T07:47:33.524Z,7.07
2018-07-04T07:50:13.268Z,7.23
2018-07-04T07:52:53.025Z,6.53
2018-07-04T07:55:32.574Z,7.00
2018-07-04T07:58:12.219Z,7.17
2018-07-04T08:00:52.142Z,7.10
2018-07-04T08:03:31.794Z,7.70
2018-07-04T08:06:11.542Z,7.93
2018-07-04T08:08:51.157Z,7.77
2018-07-04T08:11:25.705Z,6.80
2018-07-04T08:14:05.448Z,7.13
2018-07-04T08:16:45.606Z,8.10
2018-07-04T08:19:25.323Z,7.30
2018-07-04T08:22:05.082Z,7.50
2018-07-04T08:24:44.723Z,7.10
2018-07-04T08:27:24.538Z,7.20
2018-07-04T08:30:04.254Z,7.50
2018-07-04T08:32:43.973Z,7.47
2018-07-04T08:35:24.322Z,7.10
2018-07-04T08:37:58.125Z,7.03
2018-07-04T08:40:38.089Z,7.60
2018-07-04T08:43:18.048Z,6.40
2018-07-04T08:45:57.721Z,6.70
2018-07-04T08:48:41.349Z,6.60
2018-07-04T08:51:21.178Z,7.55
2018-07-04T08:54:00.963Z,7.67
2018-07-04T08:56:40.618Z,6.83
2018-07-04T08:59:20.348Z,6.35
2018-07-04T09:02:00.108Z,6.73
2018-07-04T09:04:39.964Z,7.00
2018-07-04T09:07:13.749Z,6.97
2018-07-04T09:09:53.586Z,7.20
2018-07-04T09:12:33.347Z,9.70
2018-07-04T09:15:13.042Z,7.50
2018-07-04T09:17:53.040Z,7.50
2018-07-04T09:20:32.711Z,8.00
2018-07-04T09:23:12.616Z,7.00
2018-07-04T09:25:52.404Z,8.07
2018-07-04T09:28:32.333Z,7.50
2018-07-04T09:31:11.846Z,11.67
2018-07-04T09:33:51.609Z,10.40
2018-07-04T09:36:31.505Z,12.20
2018-07-04T09:39:11.129Z,10.70
2018-07-04T09:41:50.760Z,9.90
2018-07-04T09:44:30.437Z,10.37
2018-07-04T09:47:10.309Z,10.13
2018-07-04T09:49:50.452Z,9.55
2018-07-04T09:52:30.239Z,8.50
2018-07-04T09:55:09.907Z,7.90
2018-07-04T09:57:49.717Z,6.85
2018-07-04T10:00:30.169Z,6.40
2018-07-04T10:03:11.626Z,5.90
2018-07-04T10:05:51.512Z,6.05
2018-07-04T10:08:32.279Z,6.10
2018-07-04T10:11:12.139Z,6.10
2018-07-04T10:13:52.458Z,6.23
2018-07-04T10:16:32.217Z,7.90
2018-07-04T10:19:12.930Z,6.30
2018-07-04T10:21:52.801Z,5.70
2018-07-04T10:24:32.536Z,5.53
2018-07-04T10:27:12.113Z,5.87
2018-07-04T10:29:52.621Z,4.28
2018-07-04T10:32:32.233Z,4.20
2018-07-04T10:35:12.034Z,4.50
2018-07-04T10:37:51.815Z,4.30
2018-07-04T10:40:31.646Z,4.80
2018-07-04T10:43:11.452Z,5.23
2018-07-04T10:45:51.282Z,5.73
2018-07-04T10:48:31.020Z,5.87
2018-07-04T10:51:10.627Z,6.73
2018-07-04T10:53:51.474Z,6.13
2018-07-04T10:56:31.333Z,5.90
2018-07-04T10:59:10.946Z,6.27
2018-07-04T11:01:50.866Z,6.17
2018-07-04T11:04:30.678Z,6.83
2018-07-04T11:07:10.319Z,5.80
2018-07-04T11:09:50.240Z,6.77
2018-07-04T11:12:29.703Z,7.20
2018-07-04T11:15:09.587Z,7.67
2018-07-04T11:17:49.250Z,7.07
2018-07-04T11:20:28.923Z,6.92
2018-07-04T11:23:02.603Z,5.63
2018-07-04T11:25:42.334Z,6.47
2018-07-04T11:28:22.201Z,6.10
2018-07-04T11:31:01.792Z,5.00
2018-07-04T11:33:41.458Z,5.63
2018-07-04T11:36:21.236Z,7.30
2018-07-04T11:39:01.036Z,5.80
2018-07-04T11:41:40.848Z,9.07
2018-07-04T11:44:20.471Z,5.87
2018-07-04T11:46:47.750Z,5.90
2018-07-04T11:49:15.001Z,5.60
2018-07-04T11:51:42.286Z,5.47
2018-07-04T11:54:09.544Z,7.17
2018-07-04T11:56:36.875Z,5.20
2018-07-04T11:59:04.114Z,5.40
2018-07-04T12:01:31.407Z,5.90
2018-07-04T12:04:11.201Z,4.80
2018-07-04T12:06:51.057Z,4.92
2018-07-04T12:09:18.395Z,5.30
2018-07-04T12:11:45.623Z,5.13
2018-07-04T12:14:12.927Z,5.90
2018-07-04T12:16:40.410Z,5.45
2018-07-04T12:19:16.242Z,5.47
2018-07-04T12:21:43.491Z,5.37
2018-07-04T12:24:10.755Z,4.30
2018-07-04T12:26:38.145Z,4.97
2018-07-04T12:29:05.477Z,4.80
2018-07-04T12:31:32.926Z,4.83
2018-07-04T12:34:00.183Z,5.03
2018-07-04T12:36:27.493Z,5.27
2018-07-04T12:38:54.896Z,4.77
2018-07-04T12:41:22.158Z,5.03
2018-07-04T12:43:49.448Z,4.27
2018-07-04T12:46:16.758Z,4.60
2018-07-04T12:48:44.031Z,5.07
2018-07-04T12:51:11.328Z,4.90
2018-07-04T12:53:38.527Z,4.33
2018-07-04T12:56:18.265Z,4.80
2018-07-04T12:58:57.762Z,4.90
2018-07-04T13:01:37.377Z,5.23
2018-07-04T13:04:17.082Z,4.30
2018-07-04T13:06:56.874Z,4.57
2018-07-04T13:09:36.649Z,4.63
2018-07-04T13:12:16.399Z,4.00
2018-07-04T13:14:56.153Z,4.17
2018-07-04T13:17:35.716Z,4.30
2018-07-04T13:20:15.217Z,4.93
2018-07-04T13:22:54.994Z,4.57
2018-07-04T13:25:34.756Z,4.90
2018-07-04T13:28:14.559Z,4.87
2018-07-04T13:30:54.265Z,4.93
2018-07-04T13:33:33.923Z,4.65
2018-07-04T13:36:13.778Z,4.90
2018-07-04T13:38:53.370Z,5.53
2018-07-04T13:41:33.075Z,5.45
2018-07-04T13:44:12.969Z,5.27
2018-07-04T13:46:52.873Z,5.57
2018-07-04T13:49:32.739Z,4.53
2018-07-04T13:52:12.483Z,5.87
2018-07-04T13:54:52.079Z,5.90
2018-07-04T13:57:32.077Z,6.05
2018-07-04T14:00:12.053Z,7.13
2018-07-04T14:02:51.773Z,7.23
2018-07-04T14:05:31.286Z,7.90
2018-07-04T14:08:11.033Z,9.23
2018-07-04T14:10:50.744Z,8.40
2018-07-04T14:13:30.469Z,8.53
2018-07-04T14:16:10.068Z,8.53
2018-07-04T14:18:49.887Z,8.53
2018-07-04T14:21:29.607Z,9.10
2018-07-04T14:24:09.668Z,8.47
2018-07-04T14:26:49.507Z,8.50
2018-07-04T14:29:29.352Z,8.37
2018-07-04T14:32:08.993Z,9.27
2018-07-04T14:34:48.757Z,7.67
2018-07-04T14:37:28.271Z,8.63
2018-07-04T14:40:08.064Z,8.93
2018-07-04T14:42:47.727Z,10.00
2018-07-04T14:45:27.410Z,10.67
2018-07-04T14:48:07.371Z,10.88
2018-07-04T14:50:46.921Z,9.67
2018-07-04T14:53:26.731Z,9.30
2018-07-04T14:56:06.695Z,9.95
2018-07-04T14:58:47.591Z,9.17
2018-07-04T15:01:27.191Z,9.20
2018-07-04T15:04:06.819Z,8.50
2018-07-04T15:06:46.456Z,8.97
2018-07-04T15:12:18.820Z,8.00
2018-07-04T15:14:58.585Z,8.27
2018-07-04T15:17:38.318Z,7.47
2018-07-04T15:20:18.286Z,6.72
2018-07-04T15:22:58.200Z,7.13
2018-07-04T15:25:38.234Z,6.70
2018-07-04T15:28:17.909Z,7.08
2018-07-04T15:30:57.514Z,7.17
2018-07-04T15:33:37.358Z,7.43
2018-07-04T15:36:17.660Z,7.30
2018-07-04T15:38:57.522Z,5.83
2018-07-04T15:41:37.185Z,5.83
2018-07-04T15:44:17.074Z,6.80
2018-07-04T15:46:56.609Z,6.50
2018-07-04T15:49:36.556Z,4.87
2018-07-04T15:52:15.997Z,4.73
2018-07-04T15:54:55.612Z,4.70
2018-07-04T15:57:29.379Z,4.30
2018-07-04T16:00:09.108Z,4.20
2018-07-04T16:02:48.729Z,3.87
2018-07-04T16:05:28.821Z,3.50
2018-07-04T16:08:08.453Z,3.93
2018-07-04T16:10:48.256Z,3.40
2018-07-04T16:13:27.986Z,3.80
2018-07-04T16:16:07.715Z,3.80
2018-07-04T16:18:47.499Z,3.75
2018-07-04T16:21:27.214Z,3.87
2018-07-04T16:24:06.891Z,3.70
2018-07-04T16:26:46.573Z,3.12
2018-07-04T16:29:26.127Z,4.10
2018-07-04T16:32:05.950Z,4.07
2018-07-04T16:34:45.667Z,3.70
2018-07-04T16:37:25.482Z,4.17
2018-07-04T16:40:05.127Z,3.70
2018-07-04T16:42:45.200Z,4.07
2018-07-04T16:45:24.703Z,3.73
2018-07-04T16:48:04.608Z,3.90
2018-07-04T16:50:44.455Z,3.77
2018-07-04T16:53:24.300Z,3.03
2018-07-04T16:56:03.972Z,3.50
2018-07-04T16:58:43.752Z,3.60
2018-07-04T17:01:23.391Z,3.23
2018-07-04T17:04:03.198Z,3.40
2018-07-04T17:06:42.915Z,3.67
2018-07-04T17:09:22.645Z,3.00
2018-07-04T17:12:03.032Z,3.37
2018-07-04T17:14:42.852Z,3.63
2018-07-04T17:17:22.519Z,3.27
2018-07-04T17:20:06.259Z,3.63
2018-07-04T17:22:45.988Z,3.70
2018-07-04T17:25:25.793Z,3.42
2018-07-04T17:28:05.844Z,3.93
2018-07-04T17:30:45.584Z,4.03
2018-07-04T17:33:25.516Z,4.00
2018-07-04T17:36:05.215Z,4.30
2018-07-04T17:38:45.292Z,3.90
2018-07-04T17:41:25.059Z,3.80
2018-07-04T17:44:04.988Z,4.13
2018-07-04T17:46:44.796Z,3.57
2018-07-04T17:49:24.591Z,3.77
2018-07-04T17:52:04.367Z,3.30
2018-07-04T17:54:44.171Z,3.80
2018-07-04T17:57:24.760Z,3.77
2018-07-04T18:00:04.411Z,3.30
2018-07-04T18:02:44.148Z,4.27
2018-07-04T18:05:23.905Z,3.70
2018-07-04T18:08:03.509Z,5.23
2018-07-04T18:10:46.479Z,4.00
2018-07-04T18:13:26.328Z,4.23
2018-07-04T18:16:05.912Z,4.40
2018-07-04T18:18:39.621Z,3.77
2018-07-04T18:21:23.473Z,4.13
2018-07-04T18:24:03.698Z,3.50
2018-07-04T18:26:43.421Z,4.10
2018-07-04T18:29:23.269Z,3.70
2018-07-04T18:32:03.152Z,4.10
2018-07-04T18:34:43.042Z,4.07
2018-07-04T18:37:22.646Z,4.00
2018-07-04T18:40:02.130Z,4.20
2018-07-04T18:42:41.900Z,4.40
2018-07-04T18:45:21.465Z,4.10
2018-07-04T18:48:01.043Z,4.87
2018-07-04T18:50:40.875Z,3.93
2018-07-04T18:53:20.533Z,4.03
2018-07-04T18:56:00.267Z,4.40
2018-07-04T18:58:40.058Z,4.30
2018-07-04T19:01:19.723Z,3.97
2018-07-04T19:03:59.499Z,4.27
2018-07-04T19:06:39.073Z,4.40
2018-07-04T19:09:18.886Z,4.10
2018-07-04T19:11:58.639Z,4.20
2018-07-04T19:14:39.597Z,3.80
2018-07-04T19:17:19.507Z,3.90
2018-07-04T19:20:00.212Z,4.07
2018-07-04T19:22:40.040Z,4.67
2018-07-04T19:25:19.643Z,4.90
2018-07-04T19:27:59.247Z,4.73
2018-07-04T19:30:38.848Z,4.50
2018-07-04T19:33:18.487Z,4.60
2018-07-04T19:35:58.344Z,4.10
2018-07-04T19:38:38.118Z,5.07
2018-07-04T19:41:17.943Z,4.70
2018-07-04T19:43:57.754Z,4.47
2018-07-04T19:46:37.439Z,4.70
2018-07-04T19:49:17.157Z,5.30
2018-07-04T19:51:57.033Z,5.57
2018-07-04T19:54:30.538Z,5.62
2018-07-04T19:57:10.253Z,4.63
2018-07-04T19:59:49.925Z,4.90
2018-07-04T20:02:23.703Z,5.10
2018-07-04T20:05:03.356Z,5.23
2018-07-04T20:07:43.964Z,5.10
2018-07-04T20:10:23.542Z,5.13
2018-07-04T20:13:03.154Z,4.90
2018-07-04T20:15:42.997Z,5.10
2018-07-04T20:18:22.694Z,4.50
2018-07-04T20:21:02.353Z,4.97
2018-07-04T20:23:42.245Z,4.40
2018-07-04T20:26:21.837Z,5.67
2018-07-04T20:29:01.589Z,5.47
2018-07-04T20:34:34.787Z,5.07
2018-07-04T20:37:14.576Z,5.60
2018-07-04T20:39:54.313Z,5.30
2018-07-04T20:42:34.221Z,4.87
2018-07-04T20:45:13.998Z,5.30
2018-07-04T20:47:47.639Z,5.20
2018-07-04T20:50:27.226Z,5.47
2018-07-04T20:53:07.025Z,6.10
2018-07-04T20:55:46.888Z,5.10
2018-07-04T20:58:30.026Z,6.13
2018-07-04T21:01:09.741Z,6.20
2018-07-04T21:03:49.429Z,5.43
2018-07-04T21:06:29.097Z,5.70
2018-07-04T21:09:08.673Z,5.87
2018-07-04T21:11:48.512Z,5.93
2018-07-04T21:14:28.347Z,6.17
2018-07-04T21:17:08.023Z,6.08
2018-07-04T21:19:47.846Z,6.03
2018-07-04T21:22:27.624Z,6.17
2018-07-04T21:25:07.529Z,6.40
2018-07-04T21:27:47.253Z,6.47
2018-07-04T21:30:27.092Z,5.87
2018-07-04T21:33:06.959Z,6.10
2018-07-04T21:35:46.495Z,6.37
2018-07-04T21:38:26.190Z,6.07
2018-07-04T21:41:05.913Z,6.27
2018-07-04T21:43:45.793Z,6.57
2018-07-04T21:46:25.425Z,6.13
2018-07-04T21:49:05.043Z,6.10
2018-07-04T21:51:44.817Z,6.13
2018-07-04T21:54:24.570Z,6.30
2018-07-04T21:57:04.310Z,6.27
2018-07-04T21:59:43.967Z,6.20
2018-07-04T22:02:23.459Z,6.70
2018-07-04T22:05:03.166Z,6.57
2018-07-04T22:07:42.889Z,6.23
2018-07-04T22:10:22.618Z,5.70
2018-07-04T22:13:02.295Z,6.30
2018-07-04T22:15:41.890Z,6.33
2018-07-04T22:18:21.644Z,5.67
2018-07-04T22:21:01.244Z,6.27
2018-07-04T22:23:41.001Z,6.10
2018-07-04T22:26:20.895Z,6.60
2018-07-04T22:29:00.917Z,5.93
2018-07-04T22:31:40.773Z,6.35
2018-07-04T22:34:20.476Z,6.37
2018-07-04T22:37:00.245Z,6.10
2018-07-04T22:39:40.019Z,5.90
2018-07-04T22:42:19.531Z,5.33
2018-07-04T22:44:59.081Z,5.70
2018-07-04T22:47:38.807Z,5.40
2018-07-04T22:50:18.435Z,5.93
2018-07-04T22:52:58.082Z,5.63
2018-07-04T22:55:38.805Z,5.77
2018-07-04T22:58:18.445Z,5.40
2018-07-04T23:00:58.079Z,6.23
2018-07-04T23:03:37.690Z,5.67
2018-07-04T23:06:17.574Z,5.87
2018-07-04T23:08:57.181Z,5.87
2018-07-04T23:11:37.017Z,5.50
2018-07-04T23:14:16.724Z,5.70
2018-07-04T23:16:56.335Z,5.73
2018-07-04T23:19:35.948Z,6.67
2018-07-04T23:22:09.632Z,6.03
2018-07-04T23:24:49.346Z,6.00
2018-07-04T23:27:29.102Z,6.50
2018-07-04T23:30:08.876Z,6.73
2018-07-04T23:32:48.565Z,6.60
2018-07-04T23:35:28.430Z,6.93
2018-07-04T23:38:08.090Z,5.90
2018-07-04T23:40:47.933Z,6.20
2018-07-04T23:43:27.820Z,6.10
2018-07-04T23:46:07.521Z,6.40
2018-07-04T23:48:47.369Z,5.90
2018-07-04T23:51:29.995Z,6.80
2018-07-04T23:54:09.607Z,7.00
2018-07-04T23:56:49.270Z,6.50
2018-07-04T23:59:29.047Z,5.93
